Accueil
METAR-TAF:

METAR-TAF

Aéroports :

Aérodrome de Forlì

Forlì, Italie

latitude: 44-12N, longitude: 012-04E, altitude: 27 m

Observation

Le bulletin a été fait il y a 17 heures et 33 minutes, à 15:50 UTC
Vent 1 kt de direction variable
Température 17°C
Humidité 52%
Pression 1019 hPa
Visibilité 10 km ou plus
Nuages fragmentés à une hauteur de 4000 ft

METAR: LIPK 291550Z VRB01KT 9999 BKN040 17/07 Q1019

Heure: 11:23 (09:23 UTC)


TAF: absent

Observations et prévisions météorologiques de plus de 4000 aéroports (messages METAR et TAF).

Les stations disponibles sont représentées par des disques jaunes et rouges sur la carte.

Passer la souris dessus pour voir le nom de la station.

Cliquer dessus pour voir les observations et prévisions météorologiques.

Pour changer de carte: cliquez sur les boutons verts avec une croix noire pour zoomer, sur le bouton vert avec un tiret pour effectuer un zoom arrière, ou sur les flèches vertes pour les cartes adjacentes.


METAR-TAF: